Time;durP1;ratioP1;P1;durP2;ratioP2;P2;SDS_P1;SDS_P2;PMS_P1;PMS_P2;Temp;Humidity;BMP_temperature;BMP_pressure;BME280_temperature;BME280_humidity;BME280_pressure;Samples;Min_cycle;Max_cycle;Signal;HPM_P1;HPM_P2
2022/01/28 00:01:17;;;;;;;107.30;37.92;;;9.00;99.90;;;;;;5049253;28;20060;-67
2022/01/28 00:03:43;;;;;;;105.43;36.97;;;9.10;99.90;;;;;;5047319;28;20029;-66
2022/01/28 00:06:08;;;;;;;116.60;37.58;;;9.30;99.90;;;;;;5041492;28;20477;-67
2022/01/28 00:08:34;;;;;;;108.18;38.33;;;9.30;99.90;;;;;;5049538;28;20598;-67
2022/01/28 00:11:00;;;;;;;104.60;35.75;;;9.10;99.90;;;;;;5049528;28;20095;-66
2022/01/28 00:13:32;;;;;;;97.03;36.30;;;8.70;99.90;;;;;;5045555;28;20125;-67
2022/01/28 00:38:26;;;;;;;92.53;35.72;;;8.10;99.90;;;;;;5045331;28;20084;-67
2022/01/28 00:40:24;;;;;;;102.45;37.15;;;9.00;99.90;;;;;;5038603;28;20049;-67
2022/01/28 00:42:49;;;;;;;104.03;37.17;;;8.70;99.90;;;;;;5048537;28;20025;-67
2022/01/28 00:45:15;;;;;;;100.50;36.75;;;10.60;99.90;;;;;;5047074;28;20033;-66
2022/01/28 00:47:43;;;;;;;115.97;37.63;;;;;;;;;;5048726;28;20064;-67
2022/01/28 00:50:10;;;;;;;105.68;36.85;;;9.10;99.90;;;;;;5037503;28;20033;-66
2022/01/28 00:52:36;;;;;;;99.20;36.47;;;9.20;99.90;;;;;;5046080;28;20081;-67
2022/01/28 00:55:02;;;;;;;97.38;35.83;;;9.10;99.90;;;;;;5041839;28;20109;-66
2022/01/28 00:57:28;;;;;;;103.32;37.15;;;9.10;99.90;;;;;;5038018;28;20029;-67
2022/01/28 00:59:54;;;;;;;109.40;37.55;;;9.00;99.90;;;;;;5040929;28;20036;-68
2022/01/28 01:02:19;;;;;;;104.25;36.90;;;9.00;99.90;;;;;;5046076;28;20021;-67
2022/01/28 01:04:46;;;;;;;100.93;36.90;;;8.50;99.90;;;;;;5045331;28;20021;-68
2022/01/28 01:07:12;;;;;;;102.32;36.45;;;9.20;99.90;;;;;;5046183;28;20032;-68
2022/01/28 01:09:37;;;;;;;122.32;38.35;;;9.10;99.90;;;;;;5040093;28;20033;-67
2022/01/28 01:12:04;;;;;;;126.60;38.08;;;9.10;99.90;;;;;;5047340;28;20029;-67
2022/01/28 01:14:30;;;;;;;116.50;36.95;;;9.20;99.90;;;;;;5044135;28;20130;-67
2022/01/28 01:19:27;;;;;;;97.90;36.60;;;8.10;99.90;;;;;;5045922;28;20021;-67
2022/01/28 07:33:05;;;;;;;176.57;55.72;;;7.90;99.90;;;;;;5062480;28;20488;-70
2022/01/28 07:35:31;;;;;;;180.43;33.30;;;8.00;99.90;;;;;;5041950;28;20064;-70
2022/01/28 07:37:57;;;;;;;134.40;31.55;;;8.10;99.90;;;;;;5038430;28;20124;-70
2022/01/28 07:40:23;;;;;;;154.02;33.10;;;8.20;99.90;;;;;;5041429;28;20029;-69
2022/01/28 07:42:49;;;;;;;137.30;32.88;;;8.40;99.90;;;;;;5040044;28;20029;-70
2022/01/28 07:45:15;;;;;;;140.30;31.23;;;8.50;99.90;;;;;;5042014;28;20037;-69
2022/01/28 07:47:42;;;;;;;184.40;33.55;;;8.60;99.90;;;;;;5050285;28;20021;-70
2022/01/28 07:50:09;;;;;;;159.27;30.90;;;8.70;99.90;;;;;;5046537;28;20048;-70
2022/01/28 07:52:36;;;;;;;214.32;32.15;;;8.70;99.90;;;;;;5046533;28;20029;-70
2022/01/28 07:55:04;;;;;;;145.90;29.73;;;8.80;99.90;;;;;;5045473;28;20095;-69
2022/01/28 07:57:30;;;;;;;198.70;30.40;;;8.80;99.90;;;;;;5043689;28;20112;-70
2022/01/28 07:59:56;;;;;;;172.68;30.65;;;8.80;99.90;;;;;;5042296;28;20488;-70
2022/01/28 08:02:22;;;;;;;123.72;30.85;;;8.80;99.90;;;;;;5049135;28;20052;-69
2022/01/28 08:04:48;;;;;;;118.53;32.95;;;8.90;99.90;;;;;;5044738;28;20502;-69
2022/01/28 08:07:15;;;;;;;127.47;36.55;;;8.90;99.90;;;;;;5044109;28;20032;-69
2022/01/28 08:09:41;;;;;;;140.93;30.10;;;8.90;99.90;;;;;;5043736;28;20151;-69
2022/01/28 08:12:07;;;;;;;168.38;30.38;;;8.90;99.90;;;;;;5044038;28;20112;-69
2022/01/28 08:14:34;;;;;;;220.98;103.03;;;9.00;99.90;;;;;;5044485;28;20108;-69
2022/01/28 08:17:00;;;;;;;189.52;32.50;;;9.00;99.90;;;;;;5041234;28;20496;-69
2022/01/28 08:19:28;;;;;;;108.55;28.75;;;9.00;99.90;;;;;;5042678;28;20051;-69
2022/01/28 08:21:54;;;;;;;115.70;28.27;;;9.00;99.90;;;;;;5049783;28;20179;-69
2022/01/28 08:24:22;;;;;;;151.38;29.55;;;9.00;99.90;;;;;;5049196;28;20025;-69
2022/01/28 08:26:48;;;;;;;165.68;57.83;;;9.00;99.90;;;;;;5045034;28;25673;-69
2022/01/28 08:29:14;;;;;;;153.65;55.70;;;9.00;99.90;;;;;;5050431;28;20502;-70
2022/01/28 08:31:40;;;;;;;95.20;28.35;;;9.00;99.90;;;;;;5048461;28;20081;-69
2022/01/28 08:34:07;;;;;;;112.80;39.40;;;9.10;99.90;;;;;;5044419;28;20024;-69
2022/01/28 08:36:34;;;;;;;77.72;27.88;;;9.10;99.90;;;;;;5046520;28;20507;-69
2022/01/28 08:39:00;;;;;;;77.15;25.88;;;9.10;99.90;;;;;;5042495;28;20116;-69
2022/01/28 08:41:26;;;;;;;75.55;25.42;;;9.20;99.90;;;;;;5055540;28;20056;-68
2022/01/28 08:43:52;;;;;;;91.53;25.58;;;9.20;99.90;;;;;;5041614;28;20108;-68
2022/01/28 08:46:19;;;;;;;100.47;28.85;;;9.20;99.90;;;;;;5032005;28;20040;-69
2022/01/28 08:48:45;;;;;;;121.63;51.83;;;9.30;99.90;;;;;;5032546;28;20021;-69
2022/01/28 08:51:11;;;;;;;75.13;26.88;;;9.30;99.90;;;;;;5032330;28;20044;-69
2022/01/28 08:53:38;;;;;;;96.20;28.45;;;9.40;99.90;;;;;;5047251;28;20029;-70
2022/01/28 08:56:04;;;;;;;110.75;34.33;;;9.40;99.90;;;;;;5039253;28;20037;-69
2022/01/28 08:58:30;;;;;;;72.50;25.35;;;9.40;99.90;;;;;;5038586;28;20027;-69
2022/01/28 09:00:56;;;;;;;68.10;23.70;;;9.50;99.90;;;;;;5032766;28;20025;-69
2022/01/28 09:03:22;;;;;;;71.18;24.20;;;9.50;99.90;;;;;;5037854;28;20087;-69
2022/01/28 09:05:48;;;;;;;62.00;22.98;;;9.50;99.90;;;;;;5039917;28;20063;-69
2022/01/28 09:08:14;;;;;;;68.80;24.50;;;9.50;99.90;;;;;;5033311;28;20053;-69
2022/01/28 09:10:44;;;;;;;60.10;21.48;;;9.50;99.90;;;;;;5034665;28;20018;-69
2022/01/28 09:13:22;;;;;;;61.70;21.70;;;9.50;99.90;;;;;;5031678;28;20048;-69
2022/01/28 09:15:48;;;;;;;77.43;28.90;;;9.50;99.90;;;;;;5030392;28;20071;-68
2022/01/28 09:18:14;;;;;;;91.07;22.10;;;9.50;99.90;;;;;;5029862;28;20094;-69
2022/01/28 09:20:41;;;;;;;59.10;21.10;;;9.50;99.90;;;;;;5030743;28;20021;-70
2022/01/28 09:23:08;;;;;;;47.83;20.35;;;9.60;99.90;;;;;;5035115;28;20584;-69
2022/01/28 09:25:35;;;;;;;43.30;18.77;;;9.70;99.90;;;;;;5038883;28;20029;-70
2022/01/28 09:28:01;;;;;;;40.15;19.02;;;9.70;99.90;;;;;;5030934;28;20075;-70
2022/01/28 09:30:29;;;;;;;39.70;18.75;;;9.80;99.90;;;;;;5029627;28;20040;-69
2022/01/28 09:32:57;;;;;;;40.13;20.63;;;9.80;99.90;;;;;;5028647;28;20071;-67
2022/01/28 09:35:23;;;;;;;39.00;17.67;;;9.90;99.90;;;;;;5032169;28;20037;-69
2022/01/28 09:37:50;;;;;;;37.00;17.20;;;9.90;99.90;;;;;;5029439;28;20496;-68
2022/01/28 09:40:16;;;;;;;35.53;17.40;;;9.90;99.90;;;;;;5034625;28;20026;-69
2022/01/28 09:42:45;;;;;;;31.52;16.35;;;9.90;99.90;;;;;;5029257;28;20431;-69
2022/01/28 09:45:14;;;;;;;35.22;16.63;;;9.90;99.90;;;;;;5031508;28;20033;-69
2022/01/28 09:47:40;;;;;;;33.45;16.50;;;9.90;99.90;;;;;;5028357;28;20025;-69
2022/01/28 09:50:07;;;;;;;34.88;15.88;;;10.00;99.90;;;;;;5033170;28;20040;-69
2022/01/28 09:52:34;;;;;;;32.65;16.00;;;10.00;99.90;;;;;;5038174;28;20033;-69
2022/01/28 09:55:00;;;;;;;34.35;16.15;;;10.00;99.90;;;;;;5038871;28;20025;-69
2022/01/28 09:57:25;;;;;;;33.08;16.08;;;10.00;99.90;;;;;;5026079;28;20030;-69
2022/01/28 09:59:51;;;;;;;30.52;16.05;;;10.00;99.90;;;;;;5030252;28;20064;-69
2022/01/28 10:02:17;;;;;;;30.92;15.68;;;10.10;99.90;;;;;;5030279;28;20064;-69
2022/01/28 10:04:43;;;;;;;27.90;15.00;;;10.10;99.90;;;;;;5032145;28;20026;-70
2022/01/28 10:07:14;;;;;;;25.52;15.23;;;10.20;99.90;;;;;;5029092;28;20060;-69
2022/01/28 10:10:00;;;;;;;32.30;17.13;;;10.20;99.90;;;;;;5027016;28;20496;-70
2022/01/28 10:12:35;;;;;;;30.52;16.98;;;10.30;99.90;;;;;;5028525;28;20045;-69
2022/01/28 10:15:08;;;;;;;32.72;17.98;;;10.40;99.90;;;;;;5029771;28;20018;-70
2022/01/28 10:17:52;;;;;;;32.40;18.00;;;10.40;99.90;;;;;;5031713;28;20083;-70
2022/01/28 10:20:18;;;;;;;32.20;17.55;;;10.40;99.90;;;;;;5032237;28;20029;-70
2022/01/28 10:23:01;;;;;;;30.35;17.10;;;10.50;99.90;;;;;;5036448;28;20021;-70
2022/01/28 10:25:33;;;;;;;32.42;18.20;;;10.60;99.90;;;;;;5041564;28;20017;-70
2022/01/28 10:27:59;;;;;;;30.15;18.17;;;10.60;99.90;;;;;;5033135;28;20052;-70
2022/01/28 10:30:25;;;;;;;30.33;17.20;;;10.80;99.90;;;;;;5030202;28;20022;-69
2022/01/28 10:33:11;;;;;;;31.10;17.58;;;10.80;99.90;;;;;;5032669;28;20051;-70
2022/01/28 10:35:37;;;;;;;33.33;19.50;;;10.80;99.90;;;;;;5026905;28;20021;-69
2022/01/28 10:38:07;;;;;;;32.47;19.48;;;10.90;99.90;;;;;;5037896;28;20134;-70
2022/01/28 10:40:34;;;;;;;39.88;20.83;;;10.90;99.90;;;;;;5029944;28;20047;-67
2022/01/28 10:43:00;;;;;;;35.22;20.58;;;10.90;99.90;;;;;;5032795;28;20112;-69
2022/01/28 10:45:30;;;;;;;33.72;19.48;;;10.80;99.90;;;;;;5026541;28;20029;-69
2022/01/28 10:47:59;;;;;;;31.23;18.52;;;10.90;99.90;;;;;;5027177;28;20218;-69
2022/01/28 10:50:36;;;;;;;26.10;17.08;;;11.10;99.90;;;;;;5032508;28;20548;-69
2022/01/28 10:53:14;;;;;;;27.35;16.90;;;11.40;99.90;;;;;;5033288;28;20413;-69
2022/01/28 10:55:52;;;;;;;28.20;16.80;;;11.40;99.90;;;;;;5039409;28;20021;-69
2022/01/28 10:58:23;;;;;;;26.73;16.95;;;11.30;99.90;;;;;;5030193;28;20064;-70
2022/01/28 11:00:50;;;;;;;27.38;17.40;;;11.50;99.90;;;;;;5028338;28;20018;-69
2022/01/28 11:03:17;;;;;;;25.70;16.45;;;11.70;99.90;;;;;;5031617;28;20076;-69
2022/01/28 11:05:44;;;;;;;25.17;16.23;;;11.80;99.90;;;;;;5026660;28;20041;-69
2022/01/28 11:08:13;;;;;;;24.15;16.23;;;12.00;99.90;;;;;;5037806;28;20033;-70
2022/01/28 11:10:41;;;;;;;24.77;16.15;;;12.30;99.90;;;;;;5026819;28;20049;-70
2022/01/28 11:13:07;;;;;;;22.33;15.85;;;12.50;99.90;;;;;;5028765;28;20033;-70
2022/01/28 11:15:34;;;;;;;23.65;15.63;;;12.50;99.90;;;;;;5026209;28;20036;-70
2022/01/28 11:18:03;;;;;;;23.33;15.73;;;12.50;99.90;;;;;;5017108;28;20026;-70
2022/01/28 11:20:39;;;;;;;26.42;16.48;;;12.60;99.90;;;;;;5041700;28;20051;-70
2022/01/28 11:23:29;;;;;;;21.80;14.73;;;13.00;98.40;;;;;;5030453;28;20030;-69
2022/01/28 11:26:22;;;;;;;23.52;15.23;;;13.00;97.50;;;;;;5026189;28;20033;-70
2022/01/28 11:28:51;;;;;;;26.23;16.95;;;12.90;98.10;;;;;;5027728;28;20056;-70
2022/01/28 11:31:42;;;;;;;28.60;17.15;;;12.80;98.40;;;;;;5026311;28;20045;-70
2022/01/28 11:34:24;;;;;;;27.52;16.65;;;12.80;98.30;;;;;;5024831;28;20048;-70
2022/01/28 11:36:58;;;;;;;20.85;14.82;;;13.30;96.80;;;;;;5025632;28;20061;-71
2022/01/28 11:39:39;;;;;;;20.75;14.73;;;13.90;94.40;;;;;;5019980;28;20104;-70
2022/01/28 11:42:08;;;;;;;21.27;14.68;;;14.10;93.00;;;;;;5016970;28;20037;-71
2022/01/28 11:44:51;;;;;;;21.65;15.30;;;14.10;93.40;;;;;;5027077;28;20029;-70
2022/01/28 11:47:39;;;;;;;19.85;14.05;;;14.00;92.40;;;;;;5027748;28;20021;-70
2022/01/28 11:50:04;;;;;;;19.92;14.32;;;14.10;92.30;;;;;;5035441;28;20760;-70
2022/01/28 11:52:33;;;;;;;19.42;13.90;;;14.20;92.50;;;;;;5029916;28;20069;-71
2022/01/28 11:55:17;;;;;;;17.83;13.02;;;14.50;91.10;;;;;;5034250;28;20141;-71
2022/01/28 11:58:02;;;;;;;16.98;12.27;;;14.60;90.20;;;;;;5030545;28;20032;-70
2022/01/28 12:00:35;;;;;;;14.73;11.30;;;14.70;89.90;;;;;;5024406;28;20239;-70
2022/01/28 12:03:14;;;;;;;17.20;12.15;;;14.90;88.00;;;;;;5028102;28;20078;-69
2022/01/28 12:05:39;;;;;;;16.20;12.25;;;15.40;84.20;;;;;;5034627;28;20086;-71
2022/01/28 12:08:05;;;;;;;16.45;12.82;;;15.80;79.60;;;;;;5044109;28;20450;-70
2022/01/28 12:10:39;;;;;;;17.38;13.00;;;15.70;79.40;;;;;;5031223;28;20056;-69
2022/01/28 12:13:06;;;;;;;16.05;12.25;;;16.00;78.40;;;;;;5032233;28;20520;-68
2022/01/28 12:16:03;;;;;;;15.82;12.38;;;16.40;74.80;;;;;;5028322;28;20032;-69
2022/01/28 12:18:44;;;;;;;17.67;12.93;;;16.30;75.80;;;;;;5031559;28;20100;-70
2022/01/28 12:21:13;;;;;;;;;;;17.00;73.70;;;;;;5029669;28;20056;-71
2022/01/28 12:23:39;;;;;;;17.67;13.13;;;17.70;67.80;;;;;;5035307;28;19909;-70
2022/01/28 12:26:06;;;;;;;18.77;14.18;;;17.90;64.30;;;;;;5034733;28;20029;-71
2022/01/28 12:28:31;;;;;;;18.45;14.00;;;17.90;64.70;;;;;;5032525;28;20404;-71
2022/01/28 12:30:59;;;;;;;17.38;13.52;;;17.80;64.50;;;;;;5033451;28;20099;-70
2022/01/28 12:33:26;;;;;;;17.60;13.80;;;18.00;63.20;;;;;;5028942;28;20112;-70
2022/01/28 12:35:56;;;;;;;22.67;16.75;;;18.50;62.30;;;;;;5029380;28;20485;-71
2022/01/28 12:38:24;;;;;;;20.65;15.57;;;18.30;62.80;;;;;;5030148;28;20025;-71
2022/01/28 12:40:54;;;;;;;20.15;14.98;;;17.60;65.00;;;;;;5031292;28;20116;-72
2022/01/28 12:43:22;;;;;;;20.95;14.73;;;17.00;68.90;;;;;;5030784;28;21172;-73
2022/01/28 12:45:58;;;;;;;22.48;17.15;;;16.40;73.20;;;;;;5029887;28;20088;-71
2022/01/28 12:48:25;;;;;;;18.00;13.27;;;16.00;76.60;;;;;;5035135;28;20446;-71
2022/01/28 12:50:53;;;;;;;18.73;13.90;;;15.80;75.80;;;;;;5025428;28;20521;-72
2022/01/28 12:53:39;;;;;;;21.40;15.10;;;15.80;75.50;;;;;;5030317;28;20037;-72
2022/01/28 12:56:07;;;;;;;22.02;16.13;;;15.80;75.70;;;;;;5034959;28;20120;-72
2022/01/28 12:58:37;;;;;;;24.75;16.45;;;16.10;75.20;;;;;;5035551;28;20400;-71
2022/01/28 13:01:11;;;;;;;21.15;15.30;;;16.30;74.00;;;;;;5028350;28;20053;-71
2022/01/28 13:03:48;;;;;;;22.95;15.73;;;16.30;72.70;;;;;;5032948;28;20400;-71
2022/01/28 13:09:13;;;;;;;20.73;15.23;;;15.90;74.40;;;;;;5039754;28;20026;-72
2022/01/28 13:11:42;;;;;;;20.17;15.00;;;15.70;76.10;;;;;;5028606;28;20444;-72
2022/01/28 13:14:10;;;;;;;21.77;14.98;;;15.60;78.00;;;;;;5033119;28;20072;-71
2022/01/28 13:16:42;;;;;;;19.13;13.70;;;15.50;78.90;;;;;;5031081;28;20056;-71
2022/01/28 13:19:11;;;;;;;18.02;12.85;;;15.40;79.10;;;;;;5032940;28;20024;-71
2022/01/28 13:21:38;;;;;;;19.08;13.25;;;15.40;78.50;;;;;;5029387;28;20033;-71
2022/01/28 13:24:24;;;;;;;18.55;13.00;;;15.40;78.50;;;;;;5034075;28;20547;-71
2022/01/28 13:27:06;;;;;;;19.63;13.57;;;15.30;79.60;;;;;;5030882;28;20183;-70
2022/01/28 13:29:35;;;;;;;19.20;13.40;;;15.40;79.40;;;;;;5037223;28;20441;-72
2022/01/28 13:32:09;;;;;;;19.35;13.82;;;15.60;78.00;;;;;;5034498;28;20135;-71
2022/01/28 13:34:48;;;;;;;18.75;13.43;;;15.90;75.10;;;;;;5039110;28;20040;-71
2022/01/28 13:37:40;;;;;;;17.98;12.80;;;16.10;75.20;;;;;;5029048;28;20040;-72
2022/01/28 13:40:29;;;;;;;26.17;17.15;;;16.20;73.90;;;;;;5023044;28;20025;-71
2022/01/28 13:43:16;;;;;;;21.33;14.57;;;16.30;75.10;;;;;;5026056;28;20614;-72
2022/01/28 13:45:53;;;;;;;20.35;13.68;;;16.10;76.80;;;;;;5035235;28;20033;-70
2022/01/28 13:48:38;;;;;;;21.80;14.40;;;15.90;78.00;;;;;;5032434;28;20036;-72
2022/01/28 13:51:11;;;;;;;24.27;17.23;;;15.90;78.50;;;;;;5026096;28;20059;-72
2022/01/28 13:56:38;;;;;;;18.45;13.20;;;16.20;76.60;;;;;;5029316;28;20404;-72
2022/01/28 13:59:14;;;;;;;21.35;14.38;;;16.40;74.70;;;;;;5045978;28;20033;-72
2022/01/28 14:01:48;;;;;;;19.20;13.85;;;16.60;74.30;;;;;;5032775;28;20059;-72
2022/01/28 14:04:24;;;;;;;18.63;13.48;;;16.60;73.40;;;;;;5033535;28;20026;-73
2022/01/28 14:07:07;;;;;;;18.73;13.23;;;16.60;74.00;;;;;;5033099;28;20465;-72
2022/01/28 14:09:55;;;;;;;19.00;13.10;;;16.60;72.00;;;;;;5040828;28;20025;-73
2022/01/28 14:12:54;;;;;;;19.13;13.50;;;16.70;70.40;;;;;;5035342;28;20512;-73
2022/01/28 14:15:33;;;;;;;19.20;13.52;;;16.80;70.30;;;;;;5036812;28;20037;-73
2022/01/28 14:18:02;;;;;;;18.42;12.98;;;16.60;71.80;;;;;;5023967;28;20036;-73
2022/01/28 14:20:28;;;;;;;15.18;11.13;;;16.30;71.60;;;;;;5033040;28;20032;-73
2022/01/28 14:22:54;;;;;;;15.85;11.65;;;16.00;73.10;;;;;;5042187;28;20025;-72
2022/01/28 14:25:21;;;;;;;16.50;11.85;;;15.70;74.20;;;;;;5035667;28;20519;-73
2022/01/28 14:28:00;;;;;;;27.52;18.05;;;15.50;76.90;;;;;;5031266;28;20017;-72
2022/01/28 14:30:39;;;;;;;16.52;12.48;;;15.30;78.30;;;;;;5030717;28;20561;-72
2022/01/28 14:33:10;;;;;;;16.70;11.68;;;15.20;80.00;;;;;;5028177;28;20115;-71
2022/01/28 14:35:36;;;;;;;;;;;14.90;81.50;;;;;;5045598;28;20026;-72
2022/01/28 14:38:03;;;;;;;58.65;43.63;;;14.70;83.50;;;;;;5029597;28;20066;-72
2022/01/28 14:40:29;;;;;;;19.25;13.50;;;14.50;85.40;;;;;;5029754;28;20079;-72
2022/01/28 14:42:55;;;;;;;49.67;34.55;;;14.30;87.60;;;;;;5031409;28;20069;-72
2022/01/28 14:45:21;;;;;;;19.63;13.65;;;14.10;89.10;;;;;;5026142;28;20025;-69
2022/01/28 14:47:46;;;;;;;19.80;13.50;;;14.00;90.30;;;;;;5027584;28;20040;-69
2022/01/28 14:50:13;;;;;;;26.75;19.77;;;13.80;91.20;;;;;;5035419;28;20065;-69
2022/01/28 14:52:38;;;;;;;19.13;13.90;;;13.70;91.90;;;;;;5027326;28;20042;-69
2022/01/28 14:55:05;;;;;;;19.67;12.88;;;13.60;92.30;;;;;;5034095;28;20024;-69
2022/01/28 14:57:31;;;;;;;19.60;13.32;;;13.50;92.60;;;;;;5036390;28;20594;-69
2022/01/28 14:59:57;;;;;;;46.60;35.15;;;13.50;93.10;;;;;;5028563;28;20030;-69
2022/01/28 15:02:27;;;;;;;19.88;13.23;;;13.40;93.30;;;;;;5037583;28;20029;-68
2022/01/28 15:05:00;;;;;;;23.58;15.57;;;13.40;93.50;;;;;;5042036;28;20127;-69
2022/01/28 15:07:30;;;;;;;54.28;36.20;;;13.40;93.70;;;;;;5031439;28;20045;-69
2022/01/28 15:09:58;;;;;;;62.08;40.05;;;13.30;94.30;;;;;;5034455;28;20551;-70
2022/01/28 15:12:24;;;;;;;42.72;28.23;;;13.20;94.70;;;;;;5036558;28;20033;-68
2022/01/28 15:14:50;;;;;;;31.83;20.42;;;13.10;95.20;;;;;;5029516;28;20072;-69
2022/01/28 15:17:18;;;;;;;38.60;25.27;;;13.00;95.80;;;;;;5038480;28;20400;-69
2022/01/28 15:19:44;;;;;;;26.15;17.00;;;12.90;96.40;;;;;;5033233;28;20856;-69
2022/01/28 15:22:10;;;;;;;34.03;22.38;;;12.80;97.00;;;;;;5028776;28;20028;-70
2022/01/28 15:24:36;;;;;;;18.45;13.13;;;12.80;97.50;;;;;;5029939;28;20052;-69
2022/01/28 15:27:02;;;;;;;31.33;19.55;;;12.70;97.80;;;;;;5038705;28;20064;-69
2022/01/28 15:37:17;;;;;;;21.98;14.65;;;12.60;99.10;;;;;;5032260;28;20040;-70
2022/01/28 15:39:43;;;;;;;27.55;16.10;;;12.50;99.50;;;;;;5030086;28;20021;-68
2022/01/28 15:42:10;;;;;;;20.70;13.70;;;12.50;99.80;;;;;;5040497;28;20104;-70
2022/01/28 15:44:37;;;;;;;19.17;12.82;;;12.50;99.90;;;;;;5030659;28;20044;-70
2022/01/28 15:47:04;;;;;;;17.60;12.20;;;12.40;99.90;;;;;;5033603;28;20037;-69
2022/01/28 15:49:31;;;;;;;17.27;11.52;;;12.50;99.90;;;;;;5035898;28;20033;-70
2022/01/28 15:51:57;;;;;;;18.30;11.38;;;12.50;99.90;;;;;;5027751;28;20044;-70
2022/01/28 15:54:23;;;;;;;20.70;12.82;;;12.40;99.90;;;;;;5034301;28;20029;-72
2022/01/28 15:56:49;;;;;;;16.88;11.88;;;12.40;99.90;;;;;;5032265;28;20025;-70
2022/01/28 15:59:15;;;;;;;17.50;11.43;;;12.40;99.90;;;;;;5051131;28;20488;-69
2022/01/28 16:01:41;;;;;;;16.23;10.68;;;12.30;99.90;;;;;;5033668;28;20021;-70
2022/01/28 16:04:06;;;;;;;15.00;10.75;;;12.30;99.90;;;;;;5036731;28;20123;-69
2022/01/28 16:06:37;;;;;;;15.93;10.98;;;12.30;99.90;;;;;;5032715;28;20579;-70
2022/01/28 16:09:04;;;;;;;16.67;10.93;;;12.20;99.90;;;;;;5033992;28;20440;-69
2022/01/28 16:11:34;;;;;;;25.17;18.70;;;12.20;99.90;;;;;;5044285;28;20129;-69
2022/01/28 16:14:12;;;;;;;27.13;17.65;;;12.20;99.90;;;;;;5040043;28;20036;-70
2022/01/28 16:19:24;;;;;;;19.48;12.35;;;12.10;99.90;;;;;;5032453;28;20392;-70
2022/01/28 16:21:50;;;;;;;30.17;20.08;;;12.10;99.90;;;;;;5035363;28;20033;-71
2022/01/28 16:24:16;;;;;;;32.20;20.00;;;12.10;99.90;;;;;;5036889;28;20031;-71
2022/01/28 16:26:42;;;;;;;20.70;14.18;;;12.00;99.90;;;;;;5036886;28;20159;-72
2022/01/28 16:29:08;;;;;;;19.40;12.65;;;12.00;99.90;;;;;;5047430;28;20036;-72
2022/01/28 16:31:33;;;;;;;18.30;12.38;;;12.00;99.90;;;;;;5040202;28;20441;-71
2022/01/28 16:33:59;;;;;;;25.70;19.52;;;11.90;99.90;;;;;;5033201;28;20083;-72
2022/01/28 16:36:27;;;;;;;20.00;13.98;;;11.90;99.90;;;;;;5034172;28;20107;-70
2022/01/28 16:38:53;;;;;;;19.02;12.63;;;11.90;99.90;;;;;;5023931;28;20095;-73
2022/01/28 16:41:22;;;;;;;19.67;12.93;;;11.90;99.90;;;;;;5040458;28;20065;-73
2022/01/28 16:44:00;;;;;;;25.23;17.00;;;11.90;99.90;;;;;;5029468;28;20120;-74
2022/01/28 16:46:27;;;;;;;23.38;16.00;;;11.90;99.90;;;;;;5034232;28;20025;-73
2022/01/28 16:48:54;;;;;;;26.88;18.13;;;11.80;99.90;;;;;;5039214;28;20048;-70
2022/01/28 16:51:19;;;;;;;27.95;20.48;;;11.80;99.90;;;;;;5033631;28;20052;-71
2022/01/28 16:53:45;;;;;;;24.70;16.48;;;11.80;99.90;;;;;;5039154;28;20140;-72
2022/01/28 16:56:11;;;;;;;24.10;15.40;;;11.70;99.90;;;;;;5038762;28;20041;-71
2022/01/28 16:58:36;;;;;;;23.23;15.02;;;11.70;99.90;;;;;;5033214;28;20476;-71
2022/01/28 17:01:02;;;;;;;26.20;18.95;;;11.70;99.90;;;;;;5035760;28;20036;-69
2022/01/28 17:03:28;;;;;;;26.33;19.05;;;11.70;99.90;;;;;;5035498;28;20091;-72
2022/01/28 17:05:54;;;;;;;24.88;17.77;;;11.70;99.90;;;;;;5029769;28;20037;-71
2022/01/28 17:08:19;;;;;;;24.10;16.63;;;11.70;99.90;;;;;;5041181;28;20079;-71
2022/01/28 17:10:57;;;;;;;25.25;16.55;;;11.70;99.90;;;;;;5041795;28;20440;-73
2022/01/28 17:13:23;;;;;;;26.58;17.35;;;11.60;99.90;;;;;;5041193;28;20045;-73
2022/01/28 17:15:49;;;;;;;24.83;16.25;;;11.60;99.90;;;;;;5038038;28;20035;-72
2022/01/28 17:18:14;;;;;;;23.20;16.55;;;11.60;99.90;;;;;;5041686;28;20611;-70
2022/01/28 17:20:40;;;;;;;24.88;16.27;;;11.60;99.90;;;;;;5037421;28;20029;-70
2022/01/28 17:23:06;;;;;;;25.35;16.85;;;11.50;99.90;;;;;;5038124;28;20030;-69
2022/01/28 17:25:33;;;;;;;26.92;18.38;;;11.50;99.90;;;;;;5033894;28;20079;-70
2022/01/28 17:27:58;;;;;;;24.88;16.83;;;11.50;99.90;;;;;;5036909;28;20080;-68
2022/01/28 17:30:28;;;;;;;27.45;17.17;;;11.50;99.90;;;;;;5042028;28;20543;-66
2022/01/28 17:32:56;;;;;;;25.85;17.27;;;11.50;99.90;;;;;;5018488;28;20208;-71
2022/01/28 17:35:22;;;;;;;32.60;21.83;;;11.50;99.90;;;;;;5039486;28;20101;-69
2022/01/28 17:37:48;;;;;;;40.92;28.35;;;11.50;99.90;;;;;;5029409;28;20033;-69
2022/01/28 20:04:56;;;;;;;31.95;21.15;;;9.60;99.90;;;;;;5108382;27;20885;-70
2022/01/28 20:07:21;;;;;;;34.53;22.25;;;9.60;99.90;;;;;;5102998;28;20024;-68
2022/01/28 20:09:47;;;;;;;35.83;22.33;;;9.70;99.90;;;;;;5103148;28;20024;-69
2022/01/28 20:12:14;;;;;;;32.00;19.92;;;9.90;99.90;;;;;;5102609;28;20034;-69
2022/01/28 20:14:42;;;;;;;30.95;19.77;;;10.00;99.90;;;;;;5090560;28;20024;-68
2022/01/28 20:17:09;;;;;;;31.92;20.95;;;10.10;99.90;;;;;;5092898;28;20040;-69
2022/01/28 20:19:34;;;;;;;32.47;21.08;;;10.20;99.90;;;;;;5098469;28;20458;-68
2022/01/28 20:22:02;;;;;;;35.22;23.15;;;10.30;99.90;;;;;;5104239;28;20055;-68
2022/01/28 20:24:28;;;;;;;34.65;22.20;;;10.40;99.90;;;;;;5098929;28;20094;-67
2022/01/28 20:26:54;;;;;;;32.45;20.60;;;10.40;99.90;;;;;;5099894;28;20027;-68
2022/01/28 20:29:20;;;;;;;32.78;21.90;;;10.50;99.90;;;;;;5113038;28;20549;-70
2022/01/28 20:31:48;;;;;;;32.72;22.00;;;10.60;99.90;;;;;;5111284;28;20360;-67
2022/01/28 20:34:14;;;;;;;33.53;21.23;;;10.60;99.90;;;;;;5103408;28;20028;-67
2022/01/28 20:36:41;;;;;;;36.08;23.83;;;10.60;99.90;;;;;;5103694;28;20051;-69
2022/01/28 20:39:07;;;;;;;31.35;21.40;;;10.60;99.90;;;;;;5092631;28;20497;-67
2022/01/28 20:41:32;;;;;;;37.72;23.85;;;10.60;99.90;;;;;;5119888;28;20061;-67
2022/01/28 20:43:58;;;;;;;37.90;25.92;;;10.70;99.90;;;;;;5102465;28;20047;-67
2022/01/28 20:46:24;;;;;;;33.85;23.52;;;10.70;99.90;;;;;;5106703;28;20371;-69
2022/01/28 20:48:51;;;;;;;35.85;23.58;;;10.70;99.90;;;;;;5098787;28;20051;-68
2022/01/28 20:51:17;;;;;;;32.30;21.65;;;10.70;99.90;;;;;;5095208;28;20016;-69
2022/01/28 20:53:43;;;;;;;32.05;21.80;;;10.70;99.90;;;;;;5121351;28;25738;-69
2022/01/28 20:56:09;;;;;;;34.47;22.60;;;10.70;99.90;;;;;;5115441;28;20015;-68
2022/01/28 20:58:35;;;;;;;36.45;23.08;;;10.70;99.90;;;;;;5109186;27;20080;-69
2022/01/28 21:01:01;;;;;;;35.38;21.48;;;10.60;99.90;;;;;;5111903;27;20024;-70
2022/01/28 21:03:27;;;;;;;35.45;22.33;;;10.70;99.90;;;;;;5112423;28;20410;-69
2022/01/28 21:05:54;;;;;;;36.17;23.42;;;10.70;99.90;;;;;;5099557;28;20019;-69
2022/01/28 21:08:21;;;;;;;34.75;22.98;;;10.70;99.90;;;;;;5120361;28;20528;-69
2022/01/28 21:10:49;;;;;;;34.28;23.65;;;10.70;99.90;;;;;;5104079;27;20467;-69
2022/01/28 21:13:16;;;;;;;37.72;25.15;;;10.70;99.90;;;;;;5097628;28;20032;-69
2022/01/28 21:15:43;;;;;;;36.80;24.95;;;10.70;99.90;;;;;;5097174;28;20111;-69
2022/01/28 21:18:09;;;;;;;32.80;23.40;;;10.70;99.90;;;;;;5089751;28;20016;-69
2022/01/28 21:20:35;;;;;;;31.38;22.58;;;10.70;99.90;;;;;;5092400;28;20031;-68
2022/01/28 21:23:01;;;;;;;34.03;22.40;;;10.70;99.90;;;;;;5101896;28;20036;-69
2022/01/28 21:25:27;;;;;;;27.42;19.83;;;10.70;99.90;;;;;;5097384;28;20086;-69
2022/01/28 21:27:52;;;;;;;34.33;21.35;;;10.70;99.90;;;;;;5096510;28;20475;-68
2022/01/28 21:30:18;;;;;;;31.10;20.30;;;10.70;99.90;;;;;;5105855;28;20024;-69
2022/01/28 21:32:44;;;;;;;108.97;72.13;;;10.60;99.90;;;;;;5091151;28;20077;-69
2022/01/28 21:35:10;;;;;;;61.42;40.80;;;10.60;99.90;;;;;;5086484;28;20059;-68
2022/01/28 21:37:36;;;;;;;76.85;52.55;;;10.60;99.90;;;;;;5087300;28;20061;-68
2022/01/28 21:40:03;;;;;;;49.33;34.50;;;10.60;99.90;;;;;;5096109;28;20042;-69
2022/01/28 21:42:29;;;;;;;43.78;30.77;;;10.60;99.90;;;;;;5088429;28;20016;-68
2022/01/28 21:44:55;;;;;;;38.55;26.20;;;10.60;99.90;;;;;;5089341;28;20039;-69
2022/01/28 21:47:21;;;;;;;38.42;26.00;;;10.60;99.90;;;;;;5093675;28;20017;-69
2022/01/28 21:49:47;;;;;;;33.85;23.02;;;10.60;99.90;;;;;;5083278;28;20062;-69
2022/01/28 21:52:12;;;;;;;27.48;20.52;;;10.60;99.90;;;;;;5082467;28;20024;-69
2022/01/28 21:54:38;;;;;;;25.70;18.20;;;10.60;99.90;;;;;;5078559;28;20012;-69